Terminal Aerodrome Forecast
Issued by NWS

Home | Current Version | Previous Version | Text Only | Print | Product List | Glossary On
Versions: 1 2 3 4 5 6 7 8 9 10 11 12 13 14 15 16
000
FTUS41 KGYX 302320
TAFAUG
TAF
KAUG 302320Z 3100/3124 19007KT P6SM SCT120 BKN200
     FM310600 20005KT 2SM BR BKN004
     FM310800 20004KT 1/2SM FG OVC002
     FM311330 21006KT P6SM BKN015
     FM311600 22007KT P6SM SCT020 BKN040=

USA.gov is the U.S. government's official web portal to all federal, state and local government web resources and services.